Terminal Aerodrome Forecast
Issued by NWS

Home | Current Version | Previous Version | Text Only | Print | Product List | Glossary On
Versions: 1 2 3 4 5 6 7 8 9 10 11 12 13 14 15 16
000
FTUS44 KLIX 040533
TAFGPT
TAF
KGPT 040533Z 0406/0506 VRB03KT P6SM SCT025 SCT250
     FM041500 VRB05KT P6SM SCT030
     FM041800 17009KT P6SM VCSH SCT035 BKN250
     FM050100 18004KT P6SM SCT100 BKN250=

USA.gov is the U.S. government's official web portal to all federal, state and local government web resources and services.